Terminal Aerodrome Forecast
Issued by NWS Riverton, WY

Home | Current Version | Previous Version | Text Only | Print | Product List | Glossary On
Versions: 1 2 3 4 5 6 7 8 9 10 11 12 13 14 15 16
000
FTUS45 KRIW 021122
TAFRIW
TAF
KRIW 021122Z 0212/0312 06007KT P6SM FEW120
     FM022000 06008KT P6SM SCT110
     FM030200 08012KT P6SM SCT100
     FM031000 VRB06KT P6SM FEW120=

USA.gov is the U.S. government's official web portal to all federal, state and local government web resources and services.